Time,TemperatureF,DewpointF,PressureIn,WindDirection,WindDirectionDegrees,WindSpeedMPH,WindSpeedGustMPH,Humidity,HourlyPrecipIn,Conditions,Clouds,dailyrainin,SoftwareType,DateUTC
2013-04-18 00:02:00,18.0,-99.9,-100.00,NNE,13,6.0,7.0,-999,0.00,,,-99.99,,2013-04-18 06:02:00,
2013-04-18 00:12:00,18.0,-99.9,-100.00,NNE,14,6.0,8.0,-999,0.00,,,-99.99,,2013-04-18 06:12:00,
2013-04-18 00:22:00,18.0,-99.9,-100.00,NNE,14,6.0,8.0,-999,0.00,,,-99.99,,2013-04-18 06:22:00,
2013-04-18 00:32:00,18.0,-99.9,-100.00,NNE,13,6.0,8.0,-999,0.00,,,-99.99,,2013-04-18 06:32:00,
2013-04-18 00:42:00,18.0,-99.9,-100.00,NE,34,6.0,7.0,-999,0.00,,,-99.99,,2013-04-18 06:42:00,
2013-04-18 00:52:00,18.0,-99.9,-100.00,NE,34,6.0,7.0,-999,0.00,,,-99.99,,2013-04-18 06:52:00,
2013-04-18 01:02:00,17.0,-99.9,-100.00,NNE,23,5.0,7.0,-999,0.00,,,-99.99,,2013-04-18 07:02:00,
2013-04-18 01:12:00,17.0,-99.9,-100.00,North,0,0.0,0.0,-999,0.00,,,-99.99,,2013-04-18 07:12:00,
2013-04-18 01:22:00,17.0,-99.9,-100.00,North,0,0.0,0.0,-999,0.00,,,-99.99,,2013-04-18 07:22:00,
2013-04-18 01:32:00,17.0,-99.9,-100.00,NE,35,5.0,7.0,-999,0.00,,,-99.99,,2013-04-18 07:32:00,
2013-04-18 01:42:00,18.0,-99.9,-100.00,NNE,24,5.0,7.0,-999,0.00,,,-99.99,,2013-04-18 07:42:00,
2013-04-18 01:53:00,18.0,-99.9,-100.00,NNE,24,5.0,7.0,-999,0.00,,,-99.99,,2013-04-18 07:53:00,
2013-04-18 02:02:00,18.0,-99.9,-100.00,NNE,14,6.0,7.0,-999,0.00,,,-99.99,,2013-04-18 08:02:00,
2013-04-18 02:12:00,19.0,-99.9,-100.00,North,11,7.0,8.0,-999,0.00,,,-99.99,,2013-04-18 08:12:00,
2013-04-18 02:22:00,19.0,-99.9,-100.00,North,11,7.0,8.0,-999,0.00,,,-99.99,,2013-04-18 08:22:00,
2013-04-18 02:32:00,19.0,-99.9,-100.00,North,6,6.0,8.0,-999,0.00,,,-99.99,,2013-04-18 08:32:00,
2013-04-18 02:42:00,18.0,-99.9,-100.00,North,357,7.0,9.0,-999,0.00,,,-99.99,,2013-04-18 08:42:00,
2013-04-18 02:52:00,18.0,-99.9,-100.00,North,357,7.0,9.0,-999,0.00,,,-99.99,,2013-04-18 08:52:00,
2013-04-18 03:02:00,18.0,-99.9,-100.00,NNE,13,7.0,8.0,-999,0.00,,,-99.99,,2013-04-18 09:02:00,
2013-04-18 03:12:00,19.0,-99.9,-100.00,NNE,20,5.0,7.0,-999,0.00,,,-99.99,,2013-04-18 09:12:00,
2013-04-18 03:23:00,19.0,-99.9,-100.00,NNE,20,5.0,7.0,-999,0.00,,,-99.99,,2013-04-18 09:23:00,
2013-04-18 03:33:00,19.0,-99.9,-100.00,NNE,14,6.0,8.0,-999,0.00,,,-99.99,,2013-04-18 09:33:00,
2013-04-18 03:43:00,18.0,-99.9,-100.00,NNE,14,7.0,9.0,-999,0.00,,,-99.99,,2013-04-18 09:43:00,
2013-04-18 03:53:00,18.0,-99.9,-100.00,NNE,14,7.0,9.0,-999,0.00,,,-99.99,,2013-04-18 09:53:00,
2013-04-18 04:03:00,18.0,-99.9,-100.00,NNE,17,7.0,8.0,-999,0.00,,,-99.99,,2013-04-18 10:03:00,
2013-04-18 04:12:00,18.0,-99.9,-100.00,NNE,17,7.0,8.0,-999,0.00,,,-99.99,,2013-04-18 10:12:00,
2013-04-18 04:23:00,18.0,-99.9,-100.00,NNE,17,7.0,8.0,-999,0.00,,,-99.99,,2013-04-18 10:23:00,
2013-04-18 04:33:00,18.0,-99.9,-100.00,North,10,6.0,7.0,-999,0.00,,,-99.99,,2013-04-18 10:33:00,
2013-04-18 04:42:00,18.0,-99.9,-100.00,North,10,6.0,7.0,-999,0.00,,,-99.99,,2013-04-18 10:42:00,
2013-04-18 04:53:00,18.0,-99.9,-100.00,NNE,21,7.0,9.0,-999,0.00,,,-99.99,,2013-04-18 10:53:00,
2013-04-18 05:03:00,18.0,-99.9,-100.00,North,10,7.0,9.0,-999,0.00,,,-99.99,,2013-04-18 11:03:00,
2013-04-18 05:12:00,18.0,-99.9,-100.00,North,356,7.0,9.0,-999,0.00,,,-99.99,,2013-04-18 11:12:00,
2013-04-18 05:22:00,18.0,-99.9,-100.00,North,356,7.0,9.0,-999,0.00,,,-99.99,,2013-04-18 11:22:00,
2013-04-18 05:33:00,18.0,-99.9,-100.00,North,10,7.0,10.0,-999,0.00,,,-99.99,,2013-04-18 11:33:00,
2013-04-18 05:42:00,17.0,-99.9,-100.00,North,7,6.0,8.0,-999,0.00,,,-99.99,,2013-04-18 11:42:00,
2013-04-18 05:52:00,17.0,-99.9,-100.00,North,7,6.0,8.0,-999,0.00,,,-99.99,,2013-04-18 11:52:00,
2013-04-18 06:02:00,18.0,-99.9,-100.00,NNE,24,7.0,9.0,-999,0.00,,,-99.99,,2013-04-18 12:02:00,
2013-04-18 06:12:00,18.0,-99.9,-100.00,NNE,17,7.0,9.0,-999,0.00,,,-99.99,,2013-04-18 12:12:00,
2013-04-18 06:23:00,18.0,-99.9,-100.00,NNE,17,7.0,9.0,-999,0.00,,,-99.99,,2013-04-18 12:23:00,
2013-04-18 06:32:00,18.0,-99.9,-100.00,NNE,18,7.0,9.0,-999,0.00,,,-99.99,,2013-04-18 12:32:00,
2013-04-18 06:42:00,18.0,-99.9,-100.00,NNE,18,7.0,9.0,-999,0.00,,,-99.99,,2013-04-18 12:42:00,
2013-04-18 06:53:00,17.0,-99.9,-100.00,NNE,28,5.0,6.0,-999,0.00,,,-99.99,,2013-04-18 12:53:00,
2013-04-18 07:03:00,18.0,-99.9,-100.00,NNE,14,5.0,7.0,-999,0.00,,,-99.99,,2013-04-18 13:03:00,
2013-04-18 07:13:00,20.0,-99.9,-100.00,NNE,18,5.0,7.0,-999,0.00,,,-99.99,,2013-04-18 13:13:00,
2013-04-18 07:22:00,20.0,-99.9,-100.00,NNE,18,5.0,7.0,-999,0.00,,,-99.99,,2013-04-18 13:22:00,
2013-04-18 07:33:00,21.0,-99.9,-100.00,North,8,5.0,7.0,-999,0.00,,,-99.99,,2013-04-18 13:33:00,
2013-04-18 07:43:00,22.0,-99.9,-100.00,NNE,27,3.0,6.0,-999,0.00,,,-99.99,,2013-04-18 13:43:00,
2013-04-18 07:53:00,22.0,-99.9,-100.00,NNE,27,3.0,6.0,-999,0.00,,,-99.99,,2013-04-18 13:53:00,
2013-04-18 08:03:00,22.0,-99.9,-100.00,North,0,0.0,0.0,-999,0.00,,,-99.99,,2013-04-18 14:03:00,
2013-04-18 08:13:00,24.0,-99.9,-100.00,North,0,0.0,0.0,-999,0.00,,,-99.99,,2013-04-18 14:13:00,
2013-04-18 08:22:00,24.0,-99.9,-100.00,North,0,0.0,0.0,-999,0.00,,,-99.99,,2013-04-18 14:22:00,
2013-04-18 08:33:00,25.0,-99.9,-100.00,North,0,0.0,0.0,-999,0.00,,,-99.99,,2013-04-18 14:33:00,
2013-04-18 08:43:00,26.0,-99.9,-100.00,North,0,0.0,0.0,-999,0.00,,,-99.99,,2013-04-18 14:43:00,
2013-04-18 08:53:00,26.0,-99.9,-100.00,North,0,0.0,0.0,-999,0.00,,,-99.99,,2013-04-18 14:53:00,
2013-04-18 09:03:00,25.0,-99.9,-100.00,North,0,0.0,0.0,-999,0.00,,,-99.99,,2013-04-18 15:03:00,
2013-04-18 09:12:00,25.0,-99.9,-100.00,North,0,0.0,0.0,-999,0.00,,,-99.99,,2013-04-18 15:12:00,
2013-04-18 09:23:00,25.0,-99.9,-100.00,North,0,0.0,0.0,-999,0.00,,,-99.99,,2013-04-18 15:23:00,
2013-04-18 09:33:00,27.0,-99.9,-100.00,North,0,0.0,0.0,-999,0.00,,,-99.99,,2013-04-18 15:33:00,
2013-04-18 09:43:00,28.0,-99.9,-100.00,North,0,0.0,0.0,-999,0.00,,,-99.99,,2013-04-18 15:43:00,
2013-04-18 09:53:00,28.0,-99.9,-100.00,North,0,0.0,0.0,-999,0.00,,,-99.99,,2013-04-18 15:53:00,
2013-04-18 10:03:00,29.0,-99.9,-100.00,North,0,0.0,0.0,-999,0.00,,,-99.99,,2013-04-18 16:03:00,
2013-04-18 10:13:00,30.0,-99.9,-100.00,North,0,0.0,0.0,-999,0.00,,,-99.99,,2013-04-18 16:13:00,
2013-04-18 10:23:00,30.0,-99.9,-100.00,North,0,0.0,0.0,-999,0.00,,,-99.99,,2013-04-18 16:23:00,
2013-04-18 10:33:00,30.0,-99.9,-100.00,North,0,0.0,0.0,-999,0.00,,,-99.99,,2013-04-18 16:33:00,
2013-04-18 10:43:00,31.0,-99.9,-100.00,North,0,0.0,0.0,-999,0.00,,,-99.99,,2013-04-18 16:43:00,
2013-04-18 10:53:00,31.0,-99.9,-100.00,North,0,0.0,0.0,-999,0.00,,,-99.99,,2013-04-18 16:53:00,
2013-04-18 11:03:00,31.0,-99.9,-100.00,North,0,0.0,0.0,-999,0.00,,,-99.99,,2013-04-18 17:03:00,
2013-04-18 11:13:00,32.0,-99.9,-100.00,North,0,0.0,0.0,-999,0.00,,,-99.99,,2013-04-18 17:13:00,
2013-04-18 11:22:00,32.0,-99.9,-100.00,North,0,0.0,0.0,-999,0.00,,,-99.99,,2013-04-18 17:22:00,
2013-04-18 11:33:00,33.0,-99.9,-100.00,North,0,0.0,0.0,-999,0.00,,,-99.99,,2013-04-18 17:33:00,
2013-04-18 11:43:00,33.0,-99.9,-100.00,North,0,0.0,0.0,-999,0.00,,,-99.99,,2013-04-18 17:43:00,
2013-04-18 11:52:00,33.0,-99.9,-100.00,North,0,0.0,0.0,-999,0.00,,,-99.99,,2013-04-18 17:52:00,
2013-04-18 12:03:00,33.0,-99.9,-100.00,North,0,0.0,0.0,-999,0.00,,,-99.99,,2013-04-18 18:03:00,
2013-04-18 12:13:00,34.0,-99.9,-100.00,North,0,0.0,0.0,-999,0.00,,,-99.99,,2013-04-18 18:13:00,
2013-04-18 12:23:00,34.0,-99.9,-100.00,North,0,0.0,0.0,-999,0.00,,,-99.99,,2013-04-18 18:23:00,
2013-04-18 12:33:00,34.0,-99.9,-100.00,North,0,0.0,0.0,-999,0.00,,,-99.99,,2013-04-18 18:33:00,
2013-04-18 12:43:00,34.0,-99.9,-100.00,North,0,0.0,0.0,-999,0.00,,,-99.99,,2013-04-18 18:43:00,
2013-04-18 12:53:00,34.0,-99.9,-100.00,North,0,0.0,0.0,-999,0.00,,,-99.99,,2013-04-18 18:53:00,
2013-04-18 13:03:00,35.0,-99.9,-100.00,North,0,0.0,0.0,-999,0.00,,,-99.99,,2013-04-18 19:03:00,
2013-04-18 13:13:00,35.0,-99.9,-100.00,North,0,0.0,0.0,-999,0.00,,,-99.99,,2013-04-18 19:13:00,
2013-04-18 13:22:00,35.0,-99.9,-100.00,North,0,0.0,0.0,-999,0.00,,,-99.99,,2013-04-18 19:22:00,
2013-04-18 13:33:00,36.0,-99.9,-100.00,North,0,0.0,0.0,-999,0.00,,,-99.99,,2013-04-18 19:33:00,
2013-04-18 13:43:00,36.0,-99.9,-100.00,North,0,0.0,0.0,-999,0.00,,,-99.99,,2013-04-18 19:43:00,
2013-04-18 13:53:00,36.0,-99.9,-100.00,North,0,0.0,0.0,-999,0.00,,,-99.99,,2013-04-18 19:53:00,
2013-04-18 14:03:00,36.0,-99.9,-100.00,North,0,0.0,0.0,-999,0.00,,,-99.99,,2013-04-18 20:03:00,
2013-04-18 14:12:00,37.0,-99.9,-100.00,North,0,0.0,0.0,-999,0.00,,,-99.99,,2013-04-18 20:12:00,
2013-04-18 14:22:00,37.0,-99.9,-100.00,North,0,0.0,0.0,-999,0.00,,,-99.99,,2013-04-18 20:22:00,
2013-04-18 14:33:00,36.0,-99.9,-100.00,North,0,0.0,0.0,-999,0.00,,,-99.99,,2013-04-18 20:33:00,
2013-04-18 14:43:00,36.0,-99.9,-100.00,North,0,0.0,0.0,-999,0.00,,,-99.99,,2013-04-18 20:43:00,
2013-04-18 14:52:00,36.0,-99.9,-100.00,North,0,0.0,0.0,-999,0.00,,,-99.99,,2013-04-18 20:52:00,
2013-04-18 15:03:00,36.0,-99.9,-100.00,North,0,0.0,0.0,-999,0.00,,,-99.99,,2013-04-18 21:03:00,
2013-04-18 15:12:00,37.0,-99.9,-100.00,North,0,0.0,0.0,-999,0.00,,,-99.99,,2013-04-18 21:12:00,
2013-04-18 15:22:00,37.0,-99.9,-100.00,North,0,0.0,0.0,-999,0.00,,,-99.99,,2013-04-18 21:22:00,
2013-04-18 15:33:00,39.0,-99.9,-100.00,North,0,0.0,0.0,-999,0.00,,,-99.99,,2013-04-18 21:33:00,
2013-04-18 15:43:00,41.0,-99.9,-100.00,NNE,13,1.0,3.0,-999,0.00,,,-99.99,,2013-04-18 21:43:00,
2013-04-18 15:53:00,41.0,-99.9,-100.00,NNE,13,1.0,3.0,-999,0.00,,,-99.99,,2013-04-18 21:53:00,
2013-04-18 16:03:00,40.0,-99.9,-100.00,North,0,0.0,0.0,-999,0.00,,,-99.99,,2013-04-18 22:03:00,
2013-04-18 16:13:00,40.0,-99.9,-100.00,North,0,0.0,0.0,-999,0.00,,,-99.99,,2013-04-18 22:13:00,
2013-04-18 16:23:00,40.0,-99.9,-100.00,North,0,0.0,0.0,-999,0.00,,,-99.99,,2013-04-18 22:23:00,
2013-04-18 16:33:00,42.0,-99.9,-100.00,West,273,1.0,5.0,-999,0.00,,,-99.99,,2013-04-18 22:33:00,
2013-04-18 16:42:00,39.0,-99.9,-100.00,North,0,0.0,0.0,-999,0.00,,,-99.99,,2013-04-18 22:42:00,
2013-04-18 16:53:00,39.0,-99.9,-100.00,North,0,0.0,0.0,-999,0.00,,,-99.99,,2013-04-18 22:53:00,
2013-04-18 17:04:00,39.0,-99.9,-100.00,North,0,0.0,0.0,-999,0.00,,,-99.99,,2013-04-18 23:04:00,
2013-04-18 17:12:00,42.0,-99.9,-100.00,North,0,0.0,0.0,-999,0.00,,,-99.99,,2013-04-18 23:12:00,
2013-04-18 17:22:00,42.0,-99.9,-100.00,North,0,0.0,0.0,-999,0.00,,,-99.99,,2013-04-18 23:22:00,
2013-04-18 17:32:00,42.0,-99.9,-100.00,NNW,328,1.0,4.0,-999,0.00,,,-99.99,,2013-04-18 23:32:00,
2013-04-18 17:42:00,43.0,-99.9,-100.00,WNW,298,0.0,6.0,-999,0.00,,,-99.99,,2013-04-18 23:42:00,
2013-04-18 17:52:00,43.0,-99.9,-100.00,WNW,298,0.0,6.0,-999,0.00,,,-99.99,,2013-04-18 23:52:00,
2013-04-18 18:02:00,43.0,-99.9,-100.00,North,0,0.0,0.0,-999,0.00,,,-99.99,,2013-04-19 00:02:00,
2013-04-18 18:12:00,43.0,-99.9,-100.00,North,0,0.0,0.0,-999,0.00,,,-99.99,,2013-04-19 00:12:00,
2013-04-18 18:22:00,43.0,-99.9,-100.00,North,0,0.0,0.0,-999,0.00,,,-99.99,,2013-04-19 00:22:00,
2013-04-18 18:32:00,40.0,-99.9,-100.00,North,0,0.0,0.0,-999,0.00,,,-99.99,,2013-04-19 00:32:00,
2013-04-18 18:42:00,39.0,-99.9,-100.00,North,0,0.0,0.0,-999,0.00,,,-99.99,,2013-04-19 00:42:00,
2013-04-18 18:52:00,39.0,-99.9,-100.00,North,0,0.0,0.0,-999,0.00,,,-99.99,,2013-04-19 00:52:00,
2013-04-18 19:01:00,39.0,-99.9,-100.00,North,0,0.0,0.0,-999,0.00,,,-99.99,,2013-04-19 01:01:00,
2013-04-18 19:11:00,39.0,-99.9,-100.00,North,0,0.0,0.0,-999,0.00,,,-99.99,,2013-04-19 01:11:00,
2013-04-18 19:22:00,39.0,-99.9,-100.00,North,0,0.0,0.0,-999,0.00,,,-99.99,,2013-04-19 01:22:00,
2013-04-18 19:32:00,38.0,-99.9,-100.00,North,0,0.0,0.0,-999,0.00,,,-99.99,,2013-04-19 01:32:00,
2013-04-18 19:42:00,38.0,-99.9,-100.00,North,0,0.0,0.0,-999,0.00,,,-99.99,,2013-04-19 01:42:00,
2013-04-18 19:52:00,38.0,-99.9,-100.00,North,0,0.0,0.0,-999,0.00,,,-99.99,,2013-04-19 01:52:00,
2013-04-18 20:02:00,38.0,-99.9,-100.00,North,0,0.0,0.0,-999,0.00,,,-99.99,,2013-04-19 02:02:00,
2013-04-18 20:11:00,37.0,-99.9,-100.00,North,0,0.0,0.0,-999,0.00,,,-99.99,,2013-04-19 02:11:00,
2013-04-18 20:22:00,37.0,-99.9,-100.00,North,0,0.0,0.0,-999,0.00,,,-99.99,,2013-04-19 02:22:00,
2013-04-18 20:32:00,37.0,-99.9,-100.00,North,0,0.0,0.0,-999,0.00,,,-99.99,,2013-04-19 02:32:00,
2013-04-18 20:42:00,36.0,-99.9,-100.00,North,0,0.0,0.0,-999,0.00,,,-99.99,,2013-04-19 02:42:00,
2013-04-18 20:52:00,36.0,-99.9,-100.00,North,0,0.0,0.0,-999,0.00,,,-99.99,,2013-04-19 02:52:00,
2013-04-18 21:02:00,36.0,-99.9,-100.00,North,0,0.0,0.0,-999,0.00,,,-99.99,,2013-04-19 03:02:00,
2013-04-18 21:12:00,36.0,-99.9,-100.00,North,0,0.0,0.0,-999,0.00,,,-99.99,,2013-04-19 03:12:00,
2013-04-18 21:22:00,36.0,-99.9,-100.00,North,0,0.0,0.0,-999,0.00,,,-99.99,,2013-04-19 03:22:00,
2013-04-18 21:33:00,36.0,-99.9,-100.00,North,0,0.0,0.0,-999,0.00,,,-99.99,,2013-04-19 03:33:00,
2013-04-18 21:43:00,33.0,-99.9,-100.00,North,0,0.0,0.0,-999,0.00,,,-99.99,,2013-04-19 03:43:00,
2013-04-18 21:54:00,33.0,-99.9,-100.00,North,0,0.0,0.0,-999,0.00,,,-99.99,,2013-04-19 03:54:00,
2013-04-18 22:03:00,33.0,-99.9,-100.00,North,0,0.0,0.0,-999,0.00,,,-99.99,,2013-04-19 04:03:00,
2013-04-18 22:13:00,33.0,-99.9,-100.00,North,0,0.0,0.0,-999,0.00,,,-99.99,,2013-04-19 04:13:00,
2013-04-18 22:24:00,33.0,-99.9,-100.00,North,0,0.0,0.0,-999,0.00,,,-99.99,,2013-04-19 04:24:00,
2013-04-18 22:33:00,32.0,-99.9,-100.00,North,0,0.0,0.0,-999,0.00,,,-99.99,,2013-04-19 04:33:00,
2013-04-18 22:43:00,33.0,-99.9,-100.00,North,0,0.0,0.0,-999,0.00,,,-99.99,,2013-04-19 04:43:00,
2013-04-18 22:52:00,33.0,-99.9,-100.00,North,0,0.0,0.0,-999,0.00,,,-99.99,,2013-04-19 04:52:00,
2013-04-18 23:03:00,34.0,-99.9,-100.00,North,0,0.0,0.0,-999,0.00,,,-99.99,,2013-04-19 05:03:00,
2013-04-18 23:12:00,34.0,-99.9,-100.00,North,0,0.0,0.0,-999,0.00,,,-99.99,,2013-04-19 05:12:00,
2013-04-18 23:22:00,34.0,-99.9,-100.00,North,0,0.0,0.0,-999,0.00,,,-99.99,,2013-04-19 05:22:00,
2013-04-18 23:32:00,33.0,-99.9,-100.00,North,0,0.0,0.0,-999,0.00,,,-99.99,,2013-04-19 05:32:00,
2013-04-18 23:42:00,33.0,-99.9,-100.00,North,0,0.0,0.0,-999,0.00,,,-99.99,,2013-04-19 05:42:00,
2013-04-18 23:52:00,34.0,-99.9,-100.00,NNE,23,1.0,6.0,-999,0.00,,,-99.99,,2013-04-19 05:52:00,